DIAP/ABJ METAR and TAF weather

Enter ICAO airport designator
Station Type Date Time Source
DIAP METAR 2021/03/08 02:00 UTC NOAA

DIAP 080200Z 25003KT 9999 FEW012 27/27 Q1010 NOSIG


Station Type Date Time Source
DIAP Decoded METAR 2021/03/08 02:00 UTC NOAA

Abidjan, Cote d'Ivoire (DIAP) 05-15N 003-56W 8M
Mar 07, 2021 - 09:00 PM EST / 2021.03.08 0200 UTC
Wind: from the WSW (250 degrees) at 3 MPH (3 KT):0
Visibility: greater than 7 mile(s):0
Sky conditions: mostly clear
Temperature: 80 F (27 C)
Dew Point: 80 F (27 C)
Relative Humidity: 100%
Pressure (altimeter): 29.83 in. Hg (1010 hPa)
ob: DIAP 080200Z 25003KT 9999 FEW012 27/27 Q1010 NOSIG
cycle: 2

Station Type Date Time Source
DIAP TAF 2021/03/07 18:46 UTC NOAA

TAF DIAP 071741Z 0718/0824 23009KT 9999 SCT012 PROB30
TEMPO 0718/0722 TS FEW012 FEW020CB PROB30
TEMPO 0719/0722 4000 TSRA BKN010 FEW020CB BKN030 PROB30
TEMPO 0815/0819 FEW012 FEW020CB

Example: see airport list